createdAt,value
2022-09-10T00:00:48.758Z,17.42
2022-09-10T00:02:51.280Z,17.45
2022-09-10T00:04:53.847Z,17.41
2022-09-10T00:06:57.524Z,17.42
2022-09-10T00:09:02.142Z,17.43
2022-09-10T00:11:06.986Z,17.45
2022-09-10T00:13:10.290Z,17.44
2022-09-10T00:15:13.883Z,17.44
2022-09-10T00:17:17.752Z,17.43
2022-09-10T00:19:21.794Z,17.43
2022-09-10T00:21:27.241Z,17.41
2022-09-10T00:23:30.667Z,17.41
2022-09-10T00:25:33.247Z,17.39
2022-09-10T00:27:36.759Z,17.36
2022-09-10T00:29:39.317Z,17.36
2022-09-10T00:31:42.475Z,17.46
2022-09-10T00:33:46.620Z,17.41
2022-09-10T00:35:50.060Z,17.36
2022-09-10T00:37:52.621Z,17.34
2022-09-10T00:39:56.448Z,17.35
2022-09-10T00:41:59.218Z,17.34
2022-09-10T00:44:04.733Z,17.33
2022-09-10T00:46:07.775Z,17.31
2022-09-10T00:48:15.997Z,17.33
2022-09-10T00:50:25.653Z,17.22
2022-09-10T00:52:29.345Z,17.24
2022-09-10T00:54:35.743Z,17.23
2022-09-10T00:56:39.074Z,17.23
2022-09-10T00:58:43.142Z,17.25
2022-09-10T01:00:46.139Z,17.24
2022-09-10T01:02:48.700Z,17.27
2022-09-10T01:04:52.017Z,17.30
2022-09-10T01:06:56.765Z,17.31
2022-09-10T01:09:00.027Z,17.37
2022-09-10T01:11:16.484Z,17.34
2022-09-10T01:13:35.376Z,17.33
2022-09-10T01:15:47.313Z,17.31
2022-09-10T01:18:04.749Z,17.31
2022-09-10T01:20:51.136Z,17.27
2022-09-10T01:23:18.173Z,17.27
2022-09-10T01:25:30.448Z,17.34
2022-09-10T01:27:43.579Z,17.29
2022-09-10T01:29:52.136Z,17.33
2022-09-10T01:32:00.703Z,17.32
2022-09-10T01:34:09.183Z,17.35
2022-09-10T01:36:17.258Z,17.35
2022-09-10T01:38:25.264Z,17.37
2022-09-10T01:40:30.980Z,17.37
2022-09-10T01:42:33.560Z,17.39
2022-09-10T01:44:45.422Z,17.39
2022-09-10T01:46:55.201Z,17.42
2022-09-10T01:49:10.734Z,17.40
2022-09-10T01:51:23.779Z,17.39
2022-09-10T01:54:00.105Z,17.36
2022-09-10T01:56:12.746Z,17.39
2022-09-10T01:58:22.616Z,17.40
2022-09-10T02:00:27.742Z,17.38
2022-09-10T02:02:36.441Z,17.36
2022-09-10T02:04:39.321Z,17.36
2022-09-10T02:06:45.405Z,17.35
2022-09-10T02:08:52.618Z,17.38
2022-09-10T02:10:59.228Z,17.39
2022-09-10T02:13:01.810Z,17.40
2022-09-10T02:15:07.984Z,17.37
2022-09-10T02:17:12.424Z,17.37
2022-09-10T02:19:16.693Z,17.52
2022-09-10T02:21:19.479Z,17.20
2022-09-10T02:23:25.991Z,17.47
2022-09-10T02:25:34.386Z,17.25
2022-09-10T02:27:38.320Z,17.35
2022-09-10T02:29:41.056Z,17.35
2022-09-10T02:31:44.754Z,17.05
2022-09-10T02:33:48.674Z,17.08
2022-09-10T02:35:52.042Z,17.00
2022-09-10T02:37:54.689Z,17.01
2022-09-10T02:39:57.281Z,17.02
2022-09-10T02:42:00.039Z,17.04
2022-09-10T02:44:03.455Z,17.03
2022-09-10T02:46:07.119Z,16.92
2022-09-10T02:48:09.777Z,16.96
2022-09-10T02:50:13.612Z,16.97
2022-09-10T02:52:16.275Z,16.96
2022-09-10T02:54:19.909Z,16.98
2022-09-10T02:56:22.935Z,16.97
2022-09-10T02:58:25.584Z,16.95
2022-09-10T03:00:28.128Z,16.90
2022-09-10T03:02:30.645Z,16.94
2022-09-10T03:04:33.180Z,16.97
2022-09-10T03:06:38.078Z,16.95
2022-09-10T03:08:40.811Z,16.94
2022-09-10T03:10:43.391Z,16.93
2022-09-10T03:12:47.937Z,16.92
2022-09-10T03:14:50.752Z,16.92
2022-09-10T03:16:53.309Z,16.95
2022-09-10T03:18:55.839Z,16.89
2022-09-10T03:21:09.492Z,16.91
2022-09-10T03:23:13.420Z,16.95
2022-09-10T03:25:16.150Z,16.94
2022-09-10T03:27:20.477Z,16.92
2022-09-10T03:29:24.415Z,16.87
2022-09-10T03:31:28.058Z,16.81
2022-09-10T03:33:30.890Z,16.83
2022-09-10T03:35:33.415Z,16.89
2022-09-10T03:37:35.944Z,16.89
2022-09-10T03:39:39.924Z,16.82
2022-09-10T03:41:42.518Z,16.84
2022-09-10T03:43:45.092Z,16.83
2022-09-10T03:45:49.155Z,16.79
2022-09-10T03:47:51.962Z,16.80
2022-09-10T03:49:56.133Z,16.80
2022-09-10T03:51:58.640Z,16.79
2022-09-10T03:54:02.498Z,16.80
2022-09-10T03:56:06.970Z,16.82
2022-09-10T03:58:09.542Z,16.80
2022-09-10T04:00:12.855Z,16.81
2022-09-10T04:02:15.595Z,16.79
2022-09-10T04:04:18.340Z,16.76
2022-09-10T04:06:20.978Z,16.75
2022-09-10T04:08:23.603Z,16.75
2022-09-10T04:10:26.542Z,16.78
2022-09-10T04:12:32.147Z,16.75
2022-09-10T04:14:35.045Z,16.73
2022-09-10T04:16:37.702Z,16.71
2022-09-10T04:18:40.508Z,16.72
2022-09-10T04:20:46.930Z,16.71
2022-09-10T04:22:51.453Z,16.72
2022-09-10T04:24:54.033Z,16.68
2022-09-10T04:26:57.644Z,16.68
2022-09-10T04:29:01.619Z,16.68
2022-09-10T04:31:04.148Z,16.70
2022-09-10T04:33:07.749Z,16.73
2022-09-10T04:35:10.890Z,16.69
2022-09-10T04:37:16.172Z,16.69
2022-09-10T04:39:21.738Z,16.70
2022-09-10T04:41:24.275Z,16.72
2022-09-10T04:43:27.435Z,16.70
2022-09-10T04:45:33.042Z,16.70
2022-09-10T04:47:35.617Z,16.64
2022-09-10T04:49:38.142Z,16.63
2022-09-10T04:51:40.647Z,16.62
2022-09-10T04:53:43.197Z,16.64
2022-09-10T04:55:47.671Z,16.65
2022-09-10T04:57:50.209Z,16.61
2022-09-10T04:59:53.713Z,16.61
2022-09-10T05:01:57.762Z,16.61
2022-09-10T05:04:00.408Z,16.62
2022-09-10T05:06:03.066Z,16.62
2022-09-10T05:08:08.103Z,16.61
2022-09-10T05:10:10.934Z,16.61
2022-09-10T05:12:13.555Z,16.64
2022-09-10T05:14:16.421Z,16.62
2022-09-10T05:16:19.010Z,16.61
2022-09-10T05:18:22.959Z,16.62
2022-09-10T05:20:27.678Z,16.61
2022-09-10T05:22:37.233Z,16.62
2022-09-10T05:24:44.135Z,16.62
2022-09-10T05:26:47.182Z,16.61
2022-09-10T05:28:51.218Z,16.61
2022-09-10T05:30:53.783Z,16.65
2022-09-10T05:32:56.350Z,16.59
2022-09-10T05:35:00.215Z,16.58
2022-09-10T05:37:02.779Z,16.56
2022-09-10T05:39:05.623Z,16.53
2022-09-10T05:41:10.457Z,16.32
2022-09-10T05:43:13.061Z,16.32
2022-09-10T05:45:15.976Z,16.33
2022-09-10T05:47:18.556Z,16.36
2022-09-10T05:49:21.089Z,16.40
2022-09-10T05:51:28.611Z,16.42
2022-09-10T05:53:31.220Z,16.45
2022-09-10T05:55:33.762Z,16.49
2022-09-10T05:57:36.459Z,16.57
2022-09-10T05:59:39.724Z,16.59
2022-09-10T06:01:42.417Z,16.56
2022-09-10T06:03:45.243Z,16.59
2022-09-10T06:05:50.345Z,16.58
2022-09-10T06:07:54.244Z,16.58
2022-09-10T06:09:57.568Z,16.44
2022-09-10T06:12:00.187Z,16.53
2022-09-10T06:14:02.747Z,16.55
2022-09-10T06:16:07.334Z,16.60
2022-09-10T06:18:10.265Z,16.65
2022-09-10T06:20:15.614Z,16.53
2022-09-10T06:22:18.377Z,16.59
2022-09-10T06:24:22.507Z,16.63
2022-09-10T06:26:25.539Z,16.65
2022-09-10T06:28:28.484Z,16.74
2022-09-10T06:30:31.107Z,16.74
2022-09-10T06:32:34.939Z,16.69
2022-09-10T06:34:37.497Z,16.66
2022-09-10T06:36:41.404Z,16.67
2022-09-10T06:38:45.011Z,16.67
2022-09-10T06:40:54.696Z,16.62
2022-09-10T06:42:57.216Z,16.66
2022-09-10T06:45:00.354Z,16.68
2022-09-10T06:47:39.433Z,16.67
2022-09-10T06:49:25.747Z,16.82
2022-09-10T06:51:29.461Z,16.77
2022-09-10T06:53:33.596Z,16.71
2022-09-10T06:55:36.234Z,16.73
2022-09-10T06:57:40.451Z,16.69
2022-09-10T06:59:43.715Z,16.62
2022-09-10T07:01:47.304Z,16.65
2022-09-10T07:03:55.214Z,16.67
2022-09-10T07:05:57.740Z,16.61
2022-09-10T07:08:00.323Z,16.73
2022-09-10T07:10:02.869Z,16.89
2022-09-10T07:12:05.925Z,16.91
2022-09-10T07:14:12.258Z,16.89
2022-09-10T07:16:18.606Z,16.83
2022-09-10T07:18:21.203Z,16.81
2022-09-10T07:20:25.634Z,16.88
2022-09-10T07:22:28.194Z,16.93
2022-09-10T07:24:30.763Z,16.93
2022-09-10T07:26:33.665Z,16.96
2022-09-10T07:28:37.259Z,17.04
2022-09-10T07:30:41.596Z,17.07
2022-09-10T07:32:45.760Z,17.11
2022-09-10T07:34:48.280Z,17.16
2022-09-10T07:36:50.902Z,17.20
2022-09-10T07:38:55.111Z,17.20
2022-09-10T07:41:00.247Z,17.22
2022-09-10T07:43:02.824Z,17.16
2022-09-10T07:45:07.117Z,17.24
2022-09-10T07:47:11.077Z,17.30
2022-09-10T07:49:14.040Z,17.44
2022-09-10T07:51:19.123Z,17.39
2022-09-10T07:53:21.881Z,17.61
2022-09-10T07:55:24.463Z,17.52
2022-09-10T07:57:28.601Z,17.44
2022-09-10T07:59:31.162Z,17.42
2022-09-10T08:01:37.036Z,17.34
2022-09-10T08:03:41.489Z,17.30
2022-09-10T08:05:44.070Z,17.34
2022-09-10T08:07:46.658Z,17.41
2022-09-10T08:09:49.277Z,17.27
2022-09-10T08:11:52.113Z,17.22
2022-09-10T08:13:56.739Z,17.27
2022-09-10T08:15:59.465Z,17.17
2022-09-10T08:18:02.293Z,17.16
2022-09-10T08:20:08.696Z,17.13
2022-09-10T08:22:13.595Z,17.16
2022-09-10T08:24:16.379Z,17.30
2022-09-10T08:26:20.007Z,17.31
2022-09-10T08:28:25.567Z,17.36
2022-09-10T08:30:28.891Z,17.42
2022-09-10T08:32:31.783Z,17.39
2022-09-10T08:34:34.397Z,17.40
2022-09-10T08:36:38.357Z,17.45
2022-09-10T08:38:41.354Z,17.57
2022-09-10T08:40:44.569Z,17.68
2022-09-10T08:42:50.052Z,17.66
2022-09-10T08:44:58.275Z,17.65
2022-09-10T08:47:07.293Z,17.74
2022-09-10T08:49:14.929Z,17.82
2022-09-10T08:51:27.502Z,17.84
2022-09-10T08:53:43.725Z,17.83
2022-09-10T08:55:49.089Z,17.92
2022-09-10T08:57:57.026Z,18.09
2022-09-10T09:00:02.930Z,18.00
2022-09-10T09:02:31.878Z,18.13
2022-09-10T09:04:46.922Z,18.15
2022-09-10T09:06:54.660Z,18.33
2022-09-10T09:09:00.859Z,18.26
2022-09-10T09:11:11.862Z,18.33
2022-09-10T09:13:31.403Z,18.37
2022-09-10T09:15:44.470Z,18.16
2022-09-10T09:18:04.772Z,18.23
2022-09-10T09:20:17.999Z,18.41
2022-09-10T09:22:22.121Z,18.44
2022-09-10T09:24:35.415Z,18.29
2022-09-10T09:26:38.264Z,18.38
2022-09-10T09:28:44.947Z,18.35
2022-09-10T09:30:50.375Z,18.42
2022-09-10T09:32:53.345Z,18.47
2022-09-10T09:35:00.973Z,18.38
2022-09-10T09:37:05.641Z,18.50
2022-09-10T09:39:17.526Z,18.53
2022-09-10T09:41:30.874Z,18.51
2022-09-10T09:43:43.320Z,18.45
2022-09-10T09:45:47.598Z,18.39
2022-09-10T09:47:51.130Z,18.43
2022-09-10T09:49:53.930Z,18.38
2022-09-10T09:51:56.536Z,18.35
2022-09-10T09:54:39.370Z,18.36
2022-09-10T09:56:32.964Z,18.36
2022-09-10T09:58:37.288Z,18.38
2022-09-10T10:00:39.848Z,18.49
2022-09-10T10:02:42.644Z,18.55
2022-09-10T10:04:56.190Z,18.58
2022-09-10T10:07:00.998Z,18.67
2022-09-10T10:09:06.899Z,18.88
2022-09-10T10:11:10.233Z,18.75
2022-09-10T10:13:22.595Z,18.71
2022-09-10T10:15:37.638Z,18.78
2022-09-10T10:17:43.429Z,19.07
2022-09-10T10:19:58.891Z,19.04
2022-09-10T10:22:21.972Z,19.11
2022-09-10T10:24:32.636Z,19.20
2022-09-10T10:26:37.923Z,19.10
2022-09-10T10:28:47.334Z,19.16
2022-09-10T10:30:53.309Z,19.11
2022-09-10T10:32:57.970Z,19.25
2022-09-10T10:35:16.418Z,19.15
2022-09-10T10:37:27.894Z,19.31
2022-09-10T10:39:49.379Z,19.20
2022-09-10T10:42:04.284Z,18.97
2022-09-10T10:44:40.596Z,18.93
2022-09-10T10:46:53.968Z,18.72
2022-09-10T10:49:06.736Z,18.80
2022-09-10T10:51:18.192Z,18.80
2022-09-10T10:53:43.823Z,18.73
2022-09-10T10:55:55.314Z,18.80
2022-09-10T10:58:22.925Z,18.84
2022-09-10T11:00:27.554Z,18.80
2022-09-10T11:02:40.499Z,18.81
2022-09-10T11:04:46.913Z,18.69
2022-09-10T11:06:56.160Z,18.72
2022-09-10T11:09:06.048Z,18.79
2022-09-10T11:11:14.602Z,18.80
2022-09-10T11:13:22.130Z,18.81
2022-09-10T11:15:36.009Z,18.67
2022-09-10T11:17:46.458Z,18.57
2022-09-10T11:20:24.267Z,18.70
2022-09-10T11:22:24.688Z,18.58
2022-09-10T11:24:34.031Z,18.77
2022-09-10T11:26:41.420Z,18.79
2022-09-10T11:28:57.578Z,18.96
2022-09-10T11:31:07.727Z,19.00
2022-09-10T11:33:18.481Z,19.22
2022-09-10T11:35:26.633Z,19.16
2022-09-10T11:37:44.885Z,19.13
2022-09-10T11:39:52.349Z,19.04
2022-09-10T11:41:56.485Z,19.05
2022-09-10T11:44:08.797Z,19.19
2022-09-10T11:46:16.301Z,19.23
2022-09-10T11:48:24.553Z,19.22
2022-09-10T11:50:34.467Z,19.30
2022-09-10T11:52:38.103Z,19.25
2022-09-10T11:54:42.131Z,19.24
2022-09-10T11:56:59.609Z,19.52
2022-09-10T11:59:19.329Z,19.51
2022-09-10T12:01:36.274Z,19.47
2022-09-10T12:04:02.228Z,19.43
2022-09-10T12:06:10.305Z,19.43
2022-09-10T12:08:21.682Z,19.45
2022-09-10T12:10:33.257Z,19.49
2022-09-10T12:12:42.912Z,19.42
2022-09-10T12:14:45.578Z,19.62
2022-09-10T12:16:53.641Z,19.62
2022-09-10T12:18:58.801Z,19.77
2022-09-10T12:21:08.373Z,19.87
2022-09-10T12:23:18.012Z,20.07
2022-09-10T12:25:33.936Z,20.25
2022-09-10T12:27:49.177Z,20.26
2022-09-10T12:29:51.774Z,20.40
2022-09-10T12:32:27.096Z,20.58
2022-09-10T12:34:29.687Z,20.86
2022-09-10T12:37:15.837Z,21.09
2022-09-10T12:39:24.549Z,21.34
2022-09-10T12:41:56.550Z,21.57
2022-09-10T12:43:59.932Z,22.07
2022-09-10T12:46:05.537Z,22.20
2022-09-10T12:48:14.173Z,22.45
2022-09-10T12:50:30.856Z,22.57
2022-09-10T12:52:45.799Z,22.79
2022-09-10T12:54:59.280Z,23.31
2022-09-10T12:57:30.958Z,23.79
2022-09-10T12:59:58.828Z,24.39
2022-09-10T13:02:01.689Z,24.74
2022-09-10T13:04:07.804Z,24.80
2022-09-10T13:06:10.839Z,25.09
2022-09-10T13:08:21.339Z,25.00
2022-09-10T13:10:27.403Z,25.66
2022-09-10T13:12:32.857Z,26.21
2022-09-10T13:14:39.582Z,26.41
2022-09-10T13:16:43.633Z,25.96
2022-09-10T13:18:47.662Z,25.57
2022-09-10T13:20:51.757Z,24.90
2022-09-10T13:22:57.997Z,24.00
2022-09-10T13:25:25.142Z,23.77
2022-09-10T13:27:38.942Z,23.38
2022-09-10T13:29:45.955Z,23.57
2022-09-10T13:31:58.111Z,23.43
2022-09-10T13:34:28.473Z,23.01
2022-09-10T13:36:43.286Z,22.86
2022-09-10T13:39:14.600Z,22.55
2022-09-10T13:41:32.470Z,22.37
2022-09-10T13:43:53.745Z,22.13
2022-09-10T13:46:00.528Z,21.85
2022-09-10T13:48:10.849Z,21.65
2022-09-10T13:50:16.352Z,21.65
2022-09-10T13:52:26.350Z,21.41
2022-09-10T13:54:34.899Z,21.23
2022-09-10T13:56:38.857Z,21.03
2022-09-10T13:58:49.000Z,21.17
2022-09-10T14:00:55.917Z,20.97
2022-09-10T14:03:00.477Z,20.79
2022-09-10T14:05:03.095Z,20.79
2022-09-10T14:07:13.049Z,20.67
2022-09-10T14:09:18.350Z,20.46
2022-09-10T14:11:24.721Z,20.42
2022-09-10T14:13:33.568Z,20.30
2022-09-10T14:15:40.705Z,20.15
2022-09-10T14:17:47.752Z,20.07
2022-09-10T14:19:54.573Z,20.04
2022-09-10T14:21:58.093Z,19.99
2022-09-10T14:24:01.100Z,19.99
2022-09-10T14:26:17.455Z,19.98
2022-09-10T14:28:24.255Z,19.93
2022-09-10T14:30:30.271Z,20.03
2022-09-10T14:32:36.205Z,20.00
2022-09-10T14:34:38.759Z,19.99
2022-09-10T14:36:41.306Z,20.10
2022-09-10T14:38:45.753Z,20.00
2022-09-10T14:40:49.677Z,20.09
2022-09-10T14:42:53.594Z,20.24
2022-09-10T14:44:56.260Z,20.41
2022-09-10T14:47:01.354Z,20.48
2022-09-10T14:49:11.216Z,20.42
2022-09-10T14:51:17.435Z,20.32
2022-09-10T14:53:20.163Z,20.25
2022-09-10T14:55:25.244Z,20.40
2022-09-10T14:57:28.623Z,20.12
2022-09-10T14:59:34.468Z,20.31
2022-09-10T15:01:37.048Z,20.45
2022-09-10T15:03:40.721Z,20.51
2022-09-10T15:05:43.302Z,20.58
2022-09-10T15:07:47.349Z,20.48
2022-09-10T15:09:51.257Z,20.53
2022-09-10T15:11:56.796Z,20.55
2022-09-10T15:14:00.878Z,20.85
2022-09-10T15:16:07.156Z,21.00
2022-09-10T15:18:13.061Z,21.28
2022-09-10T15:20:17.216Z,21.49
2022-09-10T15:22:24.667Z,21.47
2022-09-10T15:24:28.292Z,21.48
2022-09-10T15:26:31.178Z,21.59
2022-09-10T15:28:34.042Z,21.80
2022-09-10T15:30:37.029Z,21.84
2022-09-10T15:32:40.982Z,22.01
2022-09-10T15:34:43.810Z,22.08
2022-09-10T15:36:47.762Z,22.13
2022-09-10T15:38:52.239Z,22.08
2022-09-10T15:41:07.808Z,22.00
2022-09-10T15:43:10.738Z,22.00
2022-09-10T15:45:13.308Z,21.93
2022-09-10T15:47:15.992Z,22.02
2022-09-10T15:49:19.959Z,21.58
2022-09-10T15:51:25.076Z,21.61
2022-09-10T15:53:28.167Z,21.37
2022-09-10T15:55:31.562Z,21.21
2022-09-10T15:57:35.999Z,21.09
2022-09-10T15:59:38.511Z,20.98
2022-09-10T16:01:43.973Z,20.85
2022-09-10T16:03:50.131Z,20.88
2022-09-10T16:05:55.026Z,20.69
2022-09-10T16:07:57.607Z,20.68
2022-09-10T16:10:00.154Z,20.57
2022-09-10T16:12:05.836Z,20.59
2022-09-10T16:14:11.979Z,20.65
2022-09-10T16:16:18.826Z,20.60
2022-09-10T16:18:21.396Z,20.50
2022-09-10T16:20:24.755Z,20.41
2022-09-10T16:22:29.863Z,20.24
2022-09-10T16:24:32.850Z,20.13
2022-09-10T16:26:38.330Z,20.48
2022-09-10T16:28:41.371Z,20.28
2022-09-10T16:30:44.531Z,20.15
2022-09-10T16:32:47.132Z,20.02
2022-09-10T16:34:49.665Z,20.08
2022-09-10T16:36:53.126Z,20.04
2022-09-10T16:38:58.848Z,19.88
2022-09-10T16:41:01.891Z,19.81
2022-09-10T16:43:04.661Z,19.78
2022-09-10T16:45:08.998Z,19.69
2022-09-10T16:47:11.702Z,19.31
2022-09-10T16:49:15.290Z,19.16
2022-09-10T16:51:19.656Z,19.29
2022-09-10T16:53:22.215Z,19.33
2022-09-10T16:55:26.163Z,19.39
2022-09-10T16:57:28.693Z,19.37
2022-09-10T16:59:31.326Z,19.35
2022-09-10T17:01:34.152Z,19.43
2022-09-10T17:03:40.968Z,19.31
2022-09-10T17:05:46.931Z,19.34
2022-09-10T17:07:49.509Z,19.21
2022-09-10T17:09:52.050Z,18.97
2022-09-10T17:11:56.110Z,19.20
2022-09-10T17:14:01.301Z,19.08
2022-09-10T17:16:16.360Z,19.11
2022-09-10T17:18:19.014Z,19.01
2022-09-10T17:20:22.440Z,19.07
2022-09-10T17:22:24.967Z,19.06
2022-09-10T17:24:28.563Z,19.14
2022-09-10T17:26:32.863Z,19.20
2022-09-10T17:28:36.869Z,19.09
2022-09-10T17:30:39.452Z,19.06
2022-09-10T17:32:41.929Z,19.13
2022-09-10T17:34:44.469Z,18.92
2022-09-10T17:36:48.659Z,18.88
2022-09-10T17:38:51.202Z,18.83
2022-09-10T17:40:58.162Z,18.95
2022-09-10T17:43:00.789Z,18.86
2022-09-10T17:45:05.609Z,18.91
2022-09-10T17:47:08.841Z,18.88
2022-09-10T17:49:13.971Z,18.97
2022-09-10T17:51:19.223Z,19.01
2022-09-10T17:53:21.777Z,18.83
2022-09-10T17:55:24.520Z,18.41
2022-09-10T17:57:27.133Z,18.31
2022-09-10T17:59:30.013Z,18.41
2022-09-10T18:01:36.203Z,18.39
2022-09-10T18:03:40.433Z,18.51
2022-09-10T18:05:43.630Z,18.30
2022-09-10T18:07:47.365Z,18.35
2022-09-10T18:09:49.947Z,18.39
2022-09-10T18:11:52.675Z,18.38
2022-09-10T18:13:57.545Z,18.43
2022-09-10T18:16:00.181Z,18.50
2022-09-10T18:18:04.405Z,18.53
2022-09-10T18:20:08.056Z,18.44
2022-09-10T18:22:11.504Z,18.42
2022-09-10T18:24:16.883Z,18.18
2022-09-10T18:26:23.136Z,18.29
2022-09-10T18:28:26.279Z,18.19
2022-09-10T18:30:29.088Z,18.21
2022-09-10T18:32:32.321Z,18.23
2022-09-10T18:34:36.267Z,18.19
2022-09-10T18:36:38.908Z,18.27
2022-09-10T18:38:42.228Z,18.30
2022-09-10T18:40:44.790Z,18.21
2022-09-10T18:42:47.935Z,18.17
2022-09-10T18:44:50.541Z,18.12
2022-09-10T18:46:54.616Z,18.10
2022-09-10T18:48:57.968Z,18.14
2022-09-10T18:51:06.377Z,18.08
2022-09-10T18:53:09.007Z,18.12
2022-09-10T18:55:12.082Z,17.99
2022-09-10T18:57:14.728Z,17.99
2022-09-10T18:59:20.413Z,17.99
2022-09-10T19:01:24.668Z,17.97
2022-09-10T19:03:27.290Z,17.95
2022-09-10T19:05:29.823Z,18.02
2022-09-10T19:07:33.711Z,17.96
2022-09-10T19:09:36.569Z,17.97
2022-09-10T19:11:40.597Z,18.01
2022-09-10T19:13:43.475Z,17.92
2022-09-10T19:15:55.131Z,17.98
2022-09-10T19:17:57.931Z,17.94
2022-09-10T19:20:00.442Z,17.87
2022-09-10T19:22:07.011Z,17.83
2022-09-10T19:24:10.961Z,17.79
2022-09-10T19:26:13.927Z,17.65
2022-09-10T19:28:16.593Z,17.59
2022-09-10T19:30:19.114Z,17.91
2022-09-10T19:32:21.640Z,17.69
2022-09-10T19:34:26.892Z,17.73
2022-09-10T19:36:33.243Z,17.65
2022-09-10T19:38:37.746Z,17.66
2022-09-10T19:40:51.323Z,17.66
2022-09-10T19:42:54.477Z,17.64
2022-09-10T19:44:57.069Z,17.69
2022-09-10T19:47:04.276Z,17.66
2022-09-10T19:49:07.508Z,17.69
2022-09-10T19:51:13.511Z,17.66
2022-09-10T19:53:16.606Z,17.64
2022-09-10T19:55:19.638Z,17.64
2022-09-10T19:57:24.565Z,17.59
2022-09-10T19:59:27.051Z,17.56
2022-09-10T20:01:32.481Z,17.55
2022-09-10T20:03:36.843Z,17.48
2022-09-10T20:05:39.669Z,17.60
2022-09-10T20:07:45.660Z,17.67
2022-09-10T20:09:48.424Z,17.71
2022-09-10T20:11:51.242Z,17.53
2022-09-10T20:13:59.021Z,17.47
2022-09-10T20:16:02.632Z,17.44
2022-09-10T20:18:05.334Z,17.06
2022-09-10T20:20:08.918Z,17.23
2022-09-10T20:22:11.661Z,17.10
2022-09-10T20:24:14.967Z,17.16
2022-09-10T20:26:19.738Z,17.13
2022-09-10T20:28:22.402Z,17.16
2022-09-10T20:30:26.955Z,17.11
2022-09-10T20:32:29.646Z,17.15
2022-09-10T20:34:32.477Z,17.14
2022-09-10T20:36:37.950Z,17.19
2022-09-10T20:38:40.603Z,17.04
2022-09-10T20:40:43.345Z,17.04
2022-09-10T20:42:45.871Z,16.97
2022-09-10T20:44:48.664Z,16.90
2022-09-10T20:46:52.823Z,16.86
2022-09-10T20:48:56.776Z,16.89
2022-09-10T20:51:01.187Z,16.88
2022-09-10T20:53:03.848Z,16.90
2022-09-10T20:55:09.977Z,17.07
2022-09-10T20:57:12.505Z,17.03
2022-09-10T20:59:16.717Z,17.01
2022-09-10T21:01:21.558Z,17.03
2022-09-10T21:03:26.025Z,16.94
2022-09-10T21:05:29.051Z,16.86
2022-09-10T21:07:31.881Z,16.86
2022-09-10T21:09:34.404Z,16.83
2022-09-10T21:11:38.926Z,16.82
2022-09-10T21:13:44.980Z,16.93
2022-09-10T21:15:47.543Z,16.88
2022-09-10T21:17:50.199Z,16.83
2022-09-10T21:19:54.115Z,16.81
2022-09-10T21:21:56.688Z,16.81
2022-09-10T21:24:01.080Z,16.80
2022-09-10T21:26:05.092Z,16.88
2022-09-10T21:28:07.624Z,16.87
2022-09-10T21:30:11.100Z,16.85
2022-09-10T21:32:13.693Z,16.75
2022-09-10T21:34:17.327Z,16.80
2022-09-10T21:36:22.145Z,16.75
2022-09-10T21:38:25.609Z,16.78
2022-09-10T21:40:28.155Z,16.80
2022-09-10T21:42:30.741Z,16.78
2022-09-10T21:44:33.775Z,16.73
2022-09-10T21:46:36.375Z,16.70
2022-09-10T21:48:39.977Z,16.69
2022-09-10T21:50:42.627Z,16.65
2022-09-10T21:52:46.488Z,16.69
2022-09-10T21:54:49.018Z,16.68
2022-09-10T21:56:52.843Z,16.65
2022-09-10T21:58:56.602Z,16.67
2022-09-10T22:00:59.689Z,16.78
2022-09-10T22:03:02.194Z,16.78
2022-09-10T22:05:05.286Z,16.78
2022-09-10T22:07:07.805Z,16.77
2022-09-10T22:09:13.844Z,16.83
2022-09-10T22:11:19.800Z,16.81
2022-09-10T22:13:23.390Z,16.79
2022-09-10T22:15:26.242Z,16.81
2022-09-10T22:17:28.798Z,16.77
2022-09-10T22:19:31.400Z,16.74
2022-09-10T22:21:36.033Z,16.68
2022-09-10T22:23:40.372Z,16.55
2022-09-10T22:25:44.246Z,16.68
2022-09-10T22:27:49.282Z,16.62
2022-09-10T22:29:51.922Z,16.59
2022-09-10T22:31:54.550Z,16.58
2022-09-10T22:33:58.956Z,16.61
2022-09-10T22:36:09.922Z,16.57
2022-09-10T22:38:19.112Z,16.53
2022-09-10T22:40:23.130Z,16.47
2022-09-10T22:42:27.324Z,16.37
2022-09-10T22:44:29.843Z,16.43
2022-09-10T22:46:33.236Z,16.44
2022-09-10T22:48:37.367Z,16.45
2022-09-10T22:50:39.885Z,16.41
2022-09-10T22:52:43.627Z,16.41
2022-09-10T22:54:46.181Z,16.40
2022-09-10T22:56:48.841Z,16.44
2022-09-10T22:58:53.887Z,16.45
2022-09-10T23:00:56.750Z,16.50
2022-09-10T23:02:59.273Z,16.52
2022-09-10T23:05:01.888Z,16.49
2022-09-10T23:07:04.520Z,16.47
2022-09-10T23:09:08.998Z,16.38
2022-09-10T23:11:15.212Z,16.42
2022-09-10T23:13:17.761Z,16.41
2022-09-10T23:15:22.457Z,16.38
2022-09-10T23:17:25.035Z,16.38
2022-09-10T23:19:29.167Z,16.42
2022-09-10T23:21:35.612Z,16.49
2022-09-10T23:23:38.257Z,16.70
2022-09-10T23:25:40.829Z,16.53
2022-09-10T23:27:43.356Z,16.53
2022-09-10T23:29:45.884Z,16.45
2022-09-10T23:31:52.834Z,16.30
2022-09-10T23:33:58.149Z,16.52
2022-09-10T23:36:00.668Z,16.39
2022-09-10T23:38:03.197Z,16.31
2022-09-10T23:40:06.998Z,16.21
2022-09-10T23:42:09.910Z,16.17
2022-09-10T23:44:12.487Z,16.20
2022-09-10T23:46:15.393Z,16.21
2022-09-10T23:48:19.257Z,16.21
2022-09-10T23:50:21.841Z,16.22
2022-09-10T23:52:24.381Z,16.16
2022-09-10T23:54:29.208Z,16.19
2022-09-10T23:56:31.826Z,16.13
2022-09-10T23:58:34.386Z,16.18
